sensor_id;sensor_type;location;lat;lon;timestamp;pressure;altitude;pressure_sealevel;temperature
20092;BMP180;10205;49.678;6.560;2022-08-23T00:02:13;99748.00;;;27.70
20092;BMP180;10205;49.678;6.560;2022-08-23T00:04:42;99732.00;;;27.70
20092;BMP180;10205;49.678;6.560;2022-08-23T00:07:15;99746.00;;;27.60
20092;BMP180;10205;49.678;6.560;2022-08-23T00:09:42;99740.00;;;27.60
20092;BMP180;10205;49.678;6.560;2022-08-23T00:12:13;99743.00;;;27.50
20092;BMP180;10205;49.678;6.560;2022-08-23T00:14:45;99748.00;;;27.50
20092;BMP180;10205;49.678;6.560;2022-08-23T00:17:14;99753.00;;;27.50
20092;BMP180;10205;49.678;6.560;2022-08-23T00:19:43;99757.00;;;27.40
20092;BMP180;10205;49.678;6.560;2022-08-23T00:22:12;99741.00;;;27.30
20092;BMP180;10205;49.678;6.560;2022-08-23T00:24:40;99742.00;;;27.30
20092;BMP180;10205;49.678;6.560;2022-08-23T00:27:11;99742.00;;;27.20
20092;BMP180;10205;49.678;6.560;2022-08-23T00:29:42;99745.00;;;27.20
20092;BMP180;10205;49.678;6.560;2022-08-23T00:32:13;99737.00;;;27.20
20092;BMP180;10205;49.678;6.560;2022-08-23T00:34:40;99748.00;;;27.10
20092;BMP180;10205;49.678;6.560;2022-08-23T00:37:10;99733.00;;;27.10
20092;BMP180;10205;49.678;6.560;2022-08-23T00:39:40;99728.00;;;27.00
20092;BMP180;10205;49.678;6.560;2022-08-23T00:42:14;99730.00;;;27.00
20092;BMP180;10205;49.678;6.560;2022-08-23T00:45:04;99720.00;;;26.90
20092;BMP180;10205;49.678;6.560;2022-08-23T00:47:49;99734.00;;;26.90
20092;BMP180;10205;49.678;6.560;2022-08-23T00:50:24;99732.00;;;26.80
20092;BMP180;10205;49.678;6.560;2022-08-23T00:53:02;99734.00;;;26.80
20092;BMP180;10205;49.678;6.560;2022-08-23T00:55:47;99739.00;;;26.70
20092;BMP180;10205;49.678;6.560;2022-08-23T00:58:23;99747.00;;;26.70
20092;BMP180;10205;49.678;6.560;2022-08-23T01:00:59;99733.00;;;26.60
20092;BMP180;10205;49.678;6.560;2022-08-23T01:03:31;99736.00;;;26.60
20092;BMP180;10205;49.678;6.560;2022-08-23T01:06:07;99740.00;;;26.60
20092;BMP180;10205;49.678;6.560;2022-08-23T01:08:38;99751.00;;;26.50
20092;BMP180;10205;49.678;6.560;2022-08-23T01:11:13;99753.00;;;26.50
20092;BMP180;10205;49.678;6.560;2022-08-23T01:13:46;99755.00;;;26.40
20092;BMP180;10205;49.678;6.560;2022-08-23T01:16:20;99762.00;;;26.40
20092;BMP180;10205;49.678;6.560;2022-08-23T01:18:51;99753.00;;;26.40
20092;BMP180;10205;49.678;6.560;2022-08-23T01:21:28;99755.00;;;26.30
20092;BMP180;10205;49.678;6.560;2022-08-23T01:24:02;99747.00;;;26.30
20092;BMP180;10205;49.678;6.560;2022-08-23T01:26:31;99740.00;;;26.20
20092;BMP180;10205;49.678;6.560;2022-08-23T01:29:01;99748.00;;;26.20
20092;BMP180;10205;49.678;6.560;2022-08-23T01:31:29;99752.00;;;26.20
20092;BMP180;10205;49.678;6.560;2022-08-23T01:34:02;99749.00;;;26.10
20092;BMP180;10205;49.678;6.560;2022-08-23T01:36:30;99760.00;;;26.10
20092;BMP180;10205;49.678;6.560;2022-08-23T01:39:00;99758.00;;;26.00
20092;BMP180;10205;49.678;6.560;2022-08-23T01:41:27;99758.00;;;26.00
20092;BMP180;10205;49.678;6.560;2022-08-23T01:43:54;99762.00;;;26.00
20092;BMP180;10205;49.678;6.560;2022-08-23T01:46:23;99758.00;;;25.90
20092;BMP180;10205;49.678;6.560;2022-08-23T01:48:52;99757.00;;;25.90
20092;BMP180;10205;49.678;6.560;2022-08-23T01:51:21;99755.00;;;25.90
20092;BMP180;10205;49.678;6.560;2022-08-23T01:53:48;99766.00;;;25.80
20092;BMP180;10205;49.678;6.560;2022-08-23T01:56:21;99763.00;;;25.80
20092;BMP180;10205;49.678;6.560;2022-08-23T01:58:50;99754.00;;;25.80
20092;BMP180;10205;49.678;6.560;2022-08-23T02:01:17;99761.00;;;25.70
20092;BMP180;10205;49.678;6.560;2022-08-23T02:03:45;99762.00;;;25.70
20092;BMP180;10205;49.678;6.560;2022-08-23T02:06:12;99761.00;;;25.70
20092;BMP180;10205;49.678;6.560;2022-08-23T02:08:39;99755.00;;;25.60
20092;BMP180;10205;49.678;6.560;2022-08-23T02:11:37;99757.00;;;25.60
20092;BMP180;10205;49.678;6.560;2022-08-23T02:14:09;99760.00;;;25.50
20092;BMP180;10205;49.678;6.560;2022-08-23T02:16:39;99754.00;;;25.50
20092;BMP180;10205;49.678;6.560;2022-08-23T02:19:11;99766.00;;;25.40
20092;BMP180;10205;49.678;6.560;2022-08-23T02:21:40;99764.00;;;25.40
20092;BMP180;10205;49.678;6.560;2022-08-23T02:24:11;99768.00;;;25.40
20092;BMP180;10205;49.678;6.560;2022-08-23T02:26:46;99766.00;;;25.30
20092;BMP180;10205;49.678;6.560;2022-08-23T02:29:16;99770.00;;;25.30
20092;BMP180;10205;49.678;6.560;2022-08-23T02:31:44;99778.00;;;25.30
20092;BMP180;10205;49.678;6.560;2022-08-23T02:34:15;99775.00;;;25.20
20092;BMP180;10205;49.678;6.560;2022-08-23T02:36:43;99773.00;;;25.20
20092;BMP180;10205;49.678;6.560;2022-08-23T02:39:12;99779.00;;;25.20
20092;BMP180;10205;49.678;6.560;2022-08-23T02:41:42;99779.00;;;25.10
20092;BMP180;10205;49.678;6.560;2022-08-23T02:44:10;99779.00;;;25.10
20092;BMP180;10205;49.678;6.560;2022-08-23T02:46:38;99787.00;;;25.10
20092;BMP180;10205;49.678;6.560;2022-08-23T02:49:06;99780.00;;;25.00
20092;BMP180;10205;49.678;6.560;2022-08-23T02:51:33;99789.00;;;25.00
20092;BMP180;10205;49.678;6.560;2022-08-23T02:54:01;99784.00;;;25.00
20092;BMP180;10205;49.678;6.560;2022-08-23T02:56:28;99783.00;;;24.90
20092;BMP180;10205;49.678;6.560;2022-08-23T02:58:57;99791.00;;;24.90
20092;BMP180;10205;49.678;6.560;2022-08-23T03:01:28;99788.00;;;24.80
20092;BMP180;10205;49.678;6.560;2022-08-23T03:03:57;99791.00;;;24.80
20092;BMP180;10205;49.678;6.560;2022-08-23T03:06:25;99794.00;;;24.80
20092;BMP180;10205;49.678;6.560;2022-08-23T03:08:53;99798.00;;;24.70
20092;BMP180;10205;49.678;6.560;2022-08-23T03:11:23;99794.00;;;24.70
20092;BMP180;10205;49.678;6.560;2022-08-23T03:13:52;99798.00;;;24.70
20092;BMP180;10205;49.678;6.560;2022-08-23T03:16:21;99795.00;;;24.60
20092;BMP180;10205;49.678;6.560;2022-08-23T03:18:49;99793.00;;;24.60
20092;BMP180;10205;49.678;6.560;2022-08-23T03:21:18;99789.00;;;24.60
20092;BMP180;10205;49.678;6.560;2022-08-23T03:23:46;99788.00;;;24.50
20092;BMP180;10205;49.678;6.560;2022-08-23T03:26:15;99791.00;;;24.50
20092;BMP180;10205;49.678;6.560;2022-08-23T03:28:44;99793.00;;;24.50
20092;BMP180;10205;49.678;6.560;2022-08-23T03:31:14;99795.00;;;24.40
20092;BMP180;10205;49.678;6.560;2022-08-23T03:33:43;99792.00;;;24.40
20092;BMP180;10205;49.678;6.560;2022-08-23T03:36:11;99801.00;;;24.40
20092;BMP180;10205;49.678;6.560;2022-08-23T03:38:40;99788.00;;;24.30
20092;BMP180;10205;49.678;6.560;2022-08-23T03:41:08;99806.00;;;24.30
20092;BMP180;10205;49.678;6.560;2022-08-23T03:43:37;99808.00;;;24.30
20092;BMP180;10205;49.678;6.560;2022-08-23T03:46:07;99800.00;;;24.20
20092;BMP180;10205;49.678;6.560;2022-08-23T03:48:35;99798.00;;;24.20
20092;BMP180;10205;49.678;6.560;2022-08-23T03:51:04;99811.00;;;24.20
20092;BMP180;10205;49.678;6.560;2022-08-23T03:53:31;99817.00;;;24.20
20092;BMP180;10205;49.678;6.560;2022-08-23T03:55:58;99810.00;;;24.10
20092;BMP180;10205;49.678;6.560;2022-08-23T03:58:25;99813.00;;;24.10
20092;BMP180;10205;49.678;6.560;2022-08-23T04:00:54;99826.00;;;24.10
20092;BMP180;10205;49.678;6.560;2022-08-23T04:03:22;99828.00;;;24.10
20092;BMP180;10205;49.678;6.560;2022-08-23T04:05:49;99829.00;;;24.00
20092;BMP180;10205;49.678;6.560;2022-08-23T04:08:18;99831.00;;;24.00
20092;BMP180;10205;49.678;6.560;2022-08-23T04:10:45;99830.00;;;24.00
20092;BMP180;10205;49.678;6.560;2022-08-23T04:13:12;99828.00;;;23.90
20092;BMP180;10205;49.678;6.560;2022-08-23T04:15:40;99838.00;;;23.90
20092;BMP180;10205;49.678;6.560;2022-08-23T04:18:07;99834.00;;;23.90
20092;BMP180;10205;49.678;6.560;2022-08-23T04:20:35;99840.00;;;23.80
20092;BMP180;10205;49.678;6.560;2022-08-23T04:23:03;99842.00;;;23.80
20092;BMP180;10205;49.678;6.560;2022-08-23T04:25:31;99851.00;;;23.80
20092;BMP180;10205;49.678;6.560;2022-08-23T04:27:59;99859.00;;;23.70
20092;BMP180;10205;49.678;6.560;2022-08-23T04:30:26;99855.00;;;23.70
20092;BMP180;10205;49.678;6.560;2022-08-23T04:32:54;99860.00;;;23.70
20092;BMP180;10205;49.678;6.560;2022-08-23T04:35:22;99861.00;;;23.60
20092;BMP180;10205;49.678;6.560;2022-08-23T04:37:50;99861.00;;;23.60
20092;BMP180;10205;49.678;6.560;2022-08-23T04:40:17;99865.00;;;23.60
20092;BMP180;10205;49.678;6.560;2022-08-23T04:43:04;99869.00;;;23.50
20092;BMP180;10205;49.678;6.560;2022-08-23T04:45:33;99873.00;;;23.50
20092;BMP180;10205;49.678;6.560;2022-08-23T04:48:04;99876.00;;;23.50
20092;BMP180;10205;49.678;6.560;2022-08-23T04:50:31;99884.00;;;23.50
20092;BMP180;10205;49.678;6.560;2022-08-23T04:52:58;99888.00;;;23.40
20092;BMP180;10205;49.678;6.560;2022-08-23T04:55:25;99883.00;;;23.40
20092;BMP180;10205;49.678;6.560;2022-08-23T04:57:53;99893.00;;;23.40
20092;BMP180;10205;49.678;6.560;2022-08-23T05:00:23;99899.00;;;23.40
20092;BMP180;10205;49.678;6.560;2022-08-23T05:02:50;99895.00;;;23.30
20092;BMP180;10205;49.678;6.560;2022-08-23T05:05:18;99896.00;;;23.30
20092;BMP180;10205;49.678;6.560;2022-08-23T05:07:45;99901.00;;;23.30
20092;BMP180;10205;49.678;6.560;2022-08-23T05:10:14;99899.00;;;23.20
20092;BMP180;10205;49.678;6.560;2022-08-23T05:12:42;99901.00;;;23.20
20092;BMP180;10205;49.678;6.560;2022-08-23T05:15:10;99902.00;;;23.20
20092;BMP180;10205;49.678;6.560;2022-08-23T05:17:39;99901.00;;;23.20
20092;BMP180;10205;49.678;6.560;2022-08-23T05:20:09;99909.00;;;23.10
20092;BMP180;10205;49.678;6.560;2022-08-23T05:22:40;99907.00;;;23.10
20092;BMP180;10205;49.678;6.560;2022-08-23T05:25:08;99919.00;;;23.10
20092;BMP180;10205;49.678;6.560;2022-08-23T05:27:36;99918.00;;;23.00
20092;BMP180;10205;49.678;6.560;2022-08-23T05:30:06;99919.00;;;23.00
20092;BMP180;10205;49.678;6.560;2022-08-23T05:32:33;99924.00;;;23.00
20092;BMP180;10205;49.678;6.560;2022-08-23T05:35:03;99916.00;;;23.00
20092;BMP180;10205;49.678;6.560;2022-08-23T05:37:30;99922.00;;;22.90
20092;BMP180;10205;49.678;6.560;2022-08-23T05:39:58;99923.00;;;22.90
20092;BMP180;10205;49.678;6.560;2022-08-23T05:42:25;99917.00;;;22.90
20092;BMP180;10205;49.678;6.560;2022-08-23T05:44:52;99924.00;;;22.90
20092;BMP180;10205;49.678;6.560;2022-08-23T05:47:21;99924.00;;;22.90
20092;BMP180;10205;49.678;6.560;2022-08-23T05:49:52;99928.00;;;22.80
20092;BMP180;10205;49.678;6.560;2022-08-23T05:52:20;99931.00;;;22.80
20092;BMP180;10205;49.678;6.560;2022-08-23T05:54:47;99932.00;;;22.80
20092;BMP180;10205;49.678;6.560;2022-08-23T05:57:15;99925.00;;;22.80
20092;BMP180;10205;49.678;6.560;2022-08-23T05:59:42;99936.00;;;22.70
20092;BMP180;10205;49.678;6.560;2022-08-23T06:02:09;99938.00;;;22.70
20092;BMP180;10205;49.678;6.560;2022-08-23T06:04:36;99946.00;;;22.70
20092;BMP180;10205;49.678;6.560;2022-08-23T06:07:03;99948.00;;;22.60
20092;BMP180;10205;49.678;6.560;2022-08-23T06:09:32;99948.00;;;22.60
20092;BMP180;10205;49.678;6.560;2022-08-23T06:12:00;99945.00;;;22.60
20092;BMP180;10205;49.678;6.560;2022-08-23T06:14:27;99950.00;;;22.60
20092;BMP180;10205;49.678;6.560;2022-08-23T06:16:54;99952.00;;;22.60
20092;BMP180;10205;49.678;6.560;2022-08-23T06:19:22;99955.00;;;22.60
20092;BMP180;10205;49.678;6.560;2022-08-23T06:21:51;99947.00;;;22.60
20092;BMP180;10205;49.678;6.560;2022-08-23T06:24:19;99949.00;;;22.60
20092;BMP180;10205;49.678;6.560;2022-08-23T06:26:48;99946.00;;;22.50
20092;BMP180;10205;49.678;6.560;2022-08-23T06:29:18;99952.00;;;22.50
20092;BMP180;10205;49.678;6.560;2022-08-23T06:31:49;99943.00;;;22.50
20092;BMP180;10205;49.678;6.560;2022-08-23T06:34:21;99944.00;;;22.50
20092;BMP180;10205;49.678;6.560;2022-08-23T06:36:52;99944.00;;;22.50
20092;BMP180;10205;49.678;6.560;2022-08-23T06:39:23;99948.00;;;22.50
20092;BMP180;10205;49.678;6.560;2022-08-23T06:41:55;99935.00;;;22.40
20092;BMP180;10205;49.678;6.560;2022-08-23T06:44:23;99939.00;;;22.40
20092;BMP180;10205;49.678;6.560;2022-08-23T06:46:50;99949.00;;;22.40
20092;BMP180;10205;49.678;6.560;2022-08-23T06:49:21;99943.00;;;22.40
20092;BMP180;10205;49.678;6.560;2022-08-23T06:51:51;99948.00;;;22.50
20092;BMP180;10205;49.678;6.560;2022-08-23T06:54:23;99942.00;;;22.50
20092;BMP180;10205;49.678;6.560;2022-08-23T06:56:54;99940.00;;;22.50
20092;BMP180;10205;49.678;6.560;2022-08-23T06:59:21;99942.00;;;22.50
20092;BMP180;10205;49.678;6.560;2022-08-23T07:01:53;99945.00;;;22.50
20092;BMP180;10205;49.678;6.560;2022-08-23T07:04:23;99943.00;;;22.50
20092;BMP180;10205;49.678;6.560;2022-08-23T07:06:51;99947.00;;;22.50
20092;BMP180;10205;49.678;6.560;2022-08-23T07:09:18;99941.00;;;22.60
20092;BMP180;10205;49.678;6.560;2022-08-23T07:11:46;99954.00;;;22.60
20092;BMP180;10205;49.678;6.560;2022-08-23T07:14:18;99943.00;;;22.60
20092;BMP180;10205;49.678;6.560;2022-08-23T07:16:49;99948.00;;;22.70
20092;BMP180;10205;49.678;6.560;2022-08-23T07:19:19;99952.00;;;22.70
20092;BMP180;10205;49.678;6.560;2022-08-23T07:21:48;99951.00;;;22.80
20092;BMP180;10205;49.678;6.560;2022-08-23T07:24:16;99950.00;;;22.80
20092;BMP180;10205;49.678;6.560;2022-08-23T07:26:46;99958.00;;;22.90
20092;BMP180;10205;49.678;6.560;2022-08-23T07:29:16;99949.00;;;22.90
20092;BMP180;10205;49.678;6.560;2022-08-23T07:31:49;99939.00;;;23.00
20092;BMP180;10205;49.678;6.560;2022-08-23T07:34:17;99943.00;;;23.00
20092;BMP180;10205;49.678;6.560;2022-08-23T07:36:46;99945.00;;;23.10
20092;BMP180;10205;49.678;6.560;2022-08-23T07:39:19;99941.00;;;23.10
20092;BMP180;10205;49.678;6.560;2022-08-23T07:41:47;99950.00;;;23.20
20092;BMP180;10205;49.678;6.560;2022-08-23T07:44:16;99942.00;;;23.20
20092;BMP180;10205;49.678;6.560;2022-08-23T07:46:44;99940.00;;;23.30
20092;BMP180;10205;49.678;6.560;2022-08-23T07:49:12;99951.00;;;23.40
20092;BMP180;10205;49.678;6.560;2022-08-23T07:51:44;99944.00;;;23.40
20092;BMP180;10205;49.678;6.560;2022-08-23T07:54:11;99940.00;;;23.50
20092;BMP180;10205;49.678;6.560;2022-08-23T07:56:39;99941.00;;;23.50
20092;BMP180;10205;49.678;6.560;2022-08-23T07:59:08;99938.00;;;23.60
20092;BMP180;10205;49.678;6.560;2022-08-23T08:01:39;99940.00;;;23.70
20092;BMP180;10205;49.678;6.560;2022-08-23T08:04:07;99940.00;;;23.80
20092;BMP180;10205;49.678;6.560;2022-08-23T08:06:39;99942.00;;;23.90
20092;BMP180;10205;49.678;6.560;2022-08-23T08:09:08;99944.00;;;23.90
20092;BMP180;10205;49.678;6.560;2022-08-23T08:11:39;99951.00;;;24.00
20092;BMP180;10205;49.678;6.560;2022-08-23T08:14:07;99945.00;;;24.10
20092;BMP180;10205;49.678;6.560;2022-08-23T08:16:40;99947.00;;;24.20
20092;BMP180;10205;49.678;6.560;2022-08-23T08:19:14;99942.00;;;24.30
20092;BMP180;10205;49.678;6.560;2022-08-23T08:21:43;99947.00;;;24.40
20092;BMP180;10205;49.678;6.560;2022-08-23T08:24:14;99955.00;;;24.40
20092;BMP180;10205;49.678;6.560;2022-08-23T08:26:42;99942.00;;;24.50
20092;BMP180;10205;49.678;6.560;2022-08-23T08:29:10;99951.00;;;24.60
20092;BMP180;10205;49.678;6.560;2022-08-23T08:31:44;99951.00;;;24.80
20092;BMP180;10205;49.678;6.560;2022-08-23T08:34:13;99954.00;;;24.80
20092;BMP180;10205;49.678;6.560;2022-08-23T08:36:42;99949.00;;;24.90
20092;BMP180;10205;49.678;6.560;2022-08-23T08:39:13;99954.00;;;25.00
20092;BMP180;10205;49.678;6.560;2022-08-23T08:42:02;99958.00;;;25.20
20092;BMP180;10205;49.678;6.560;2022-08-23T08:44:39;99952.00;;;25.30
20092;BMP180;10205;49.678;6.560;2022-08-23T08:47:13;99957.00;;;25.40
20092;BMP180;10205;49.678;6.560;2022-08-23T08:49:47;99953.00;;;25.50
20092;BMP180;10205;49.678;6.560;2022-08-23T08:52:22;99955.00;;;25.60
20092;BMP180;10205;49.678;6.560;2022-08-23T08:54:59;99963.00;;;25.70
20092;BMP180;10205;49.678;6.560;2022-08-23T08:57:36;99962.00;;;25.80
20092;BMP180;10205;49.678;6.560;2022-08-23T09:00:09;99958.00;;;26.00
20092;BMP180;10205;49.678;6.560;2022-08-23T09:02:41;99952.00;;;26.10
20092;BMP180;10205;49.678;6.560;2022-08-23T09:05:12;99947.00;;;26.20
20092;BMP180;10205;49.678;6.560;2022-08-23T09:07:56;99952.00;;;26.30
20092;BMP180;10205;49.678;6.560;2022-08-23T09:10:50;99960.00;;;26.40
20092;BMP180;10205;49.678;6.560;2022-08-23T09:13:53;99950.00;;;26.60
20092;BMP180;10205;49.678;6.560;2022-08-23T09:16:41;99949.00;;;26.70
20092;BMP180;10205;49.678;6.560;2022-08-23T09:19:11;99948.00;;;26.80
20092;BMP180;10205;49.678;6.560;2022-08-23T09:21:45;99947.00;;;27.00
20092;BMP180;10205;49.678;6.560;2022-08-23T09:24:14;99946.00;;;27.10
20092;BMP180;10205;49.678;6.560;2022-08-23T09:26:41;99944.00;;;27.20
20092;BMP180;10205;49.678;6.560;2022-08-23T09:29:20;99934.00;;;27.30
20092;BMP180;10205;49.678;6.560;2022-08-23T09:31:51;99931.00;;;27.40
20092;BMP180;10205;49.678;6.560;2022-08-23T09:34:39;99939.00;;;27.50
20092;BMP180;10205;49.678;6.560;2022-08-23T09:37:16;99934.00;;;27.60
20092;BMP180;10205;49.678;6.560;2022-08-23T09:39:47;99934.00;;;27.70
20092;BMP180;10205;49.678;6.560;2022-08-23T09:42:31;99934.00;;;27.90
20092;BMP180;10205;49.678;6.560;2022-08-23T09:45:04;99935.00;;;28.00
20092;BMP180;10205;49.678;6.560;2022-08-23T09:47:33;99943.00;;;28.10
20092;BMP180;10205;49.678;6.560;2022-08-23T09:50:16;99938.00;;;28.20
20092;BMP180;10205;49.678;6.560;2022-08-23T09:52:53;99939.00;;;28.30
20092;BMP180;10205;49.678;6.560;2022-08-23T09:55:33;99941.00;;;28.40
20092;BMP180;10205;49.678;6.560;2022-08-23T09:58:05;99932.00;;;28.50
20092;BMP180;10205;49.678;6.560;2022-08-23T10:00:35;99935.00;;;28.70
20092;BMP180;10205;49.678;6.560;2022-08-23T10:03:22;99925.00;;;28.80
20092;BMP180;10205;49.678;6.560;2022-08-23T10:05:54;99926.00;;;28.90
20092;BMP180;10205;49.678;6.560;2022-08-23T10:08:25;99924.00;;;29.00
20092;BMP180;10205;49.678;6.560;2022-08-23T10:11:10;99925.00;;;29.10
20092;BMP180;10205;49.678;6.560;2022-08-23T10:13:41;99926.00;;;29.20
20092;BMP180;10205;49.678;6.560;2022-08-23T10:16:24;99929.00;;;29.40
20092;BMP180;10205;49.678;6.560;2022-08-23T10:18:59;99921.00;;;29.50
20092;BMP180;10205;49.678;6.560;2022-08-23T10:21:39;99923.00;;;29.60
20092;BMP180;10205;49.678;6.560;2022-08-23T10:24:21;99917.00;;;29.70
20092;BMP180;10205;49.678;6.560;2022-08-23T10:27:08;99915.00;;;29.80
20092;BMP180;10205;49.678;6.560;2022-08-23T10:29:58;99918.00;;;29.90
20092;BMP180;10205;49.678;6.560;2022-08-23T10:32:43;99918.00;;;30.10
20092;BMP180;10205;49.678;6.560;2022-08-23T10:35:28;99926.00;;;30.20
20092;BMP180;10205;49.678;6.560;2022-08-23T10:38:36;99921.00;;;30.30
20092;BMP180;10205;49.678;6.560;2022-08-23T10:41:33;99918.00;;;30.40
20092;BMP180;10205;49.678;6.560;2022-08-23T10:44:22;99912.00;;;30.50
20092;BMP180;10205;49.678;6.560;2022-08-23T10:47:19;99923.00;;;30.60
20092;BMP180;10205;49.678;6.560;2022-08-23T10:49:53;99918.00;;;30.70
20092;BMP180;10205;49.678;6.560;2022-08-23T10:52:31;99914.00;;;30.90
20092;BMP180;10205;49.678;6.560;2022-08-23T10:55:06;99915.00;;;31.00
20092;BMP180;10205;49.678;6.560;2022-08-23T10:57:45;99915.00;;;31.10
20092;BMP180;10205;49.678;6.560;2022-08-23T11:00:18;99918.00;;;31.20
20092;BMP180;10205;49.678;6.560;2022-08-23T11:02:53;99908.00;;;31.30
20092;BMP180;10205;49.678;6.560;2022-08-23T11:05:25;99914.00;;;31.40
20092;BMP180;10205;49.678;6.560;2022-08-23T11:08:00;99908.00;;;31.50
20092;BMP180;10205;49.678;6.560;2022-08-23T11:10:45;99897.00;;;31.60
20092;BMP180;10205;49.678;6.560;2022-08-23T11:13:23;99895.00;;;31.70
20092;BMP180;10205;49.678;6.560;2022-08-23T11:15:58;99902.00;;;31.90
20092;BMP180;10205;49.678;6.560;2022-08-23T11:18:41;99894.00;;;32.00
20092;BMP180;10205;49.678;6.560;2022-08-23T11:21:46;99901.00;;;32.10
20092;BMP180;10205;49.678;6.560;2022-08-23T11:24:49;99890.00;;;32.20
20092;BMP180;10205;49.678;6.560;2022-08-23T11:27:33;99894.00;;;32.30
20092;BMP180;10205;49.678;6.560;2022-08-23T11:30:56;99883.00;;;32.30
20092;BMP180;10205;49.678;6.560;2022-08-23T11:33:26;99872.00;;;32.40
20092;BMP180;10205;49.678;6.560;2022-08-23T11:36:16;99882.00;;;32.60
20092;BMP180;10205;49.678;6.560;2022-08-23T11:39:09;99873.00;;;32.70
20092;BMP180;10205;49.678;6.560;2022-08-23T11:42:05;99883.00;;;32.80
20092;BMP180;10205;49.678;6.560;2022-08-23T11:44:39;99867.00;;;32.80
20092;BMP180;10205;49.678;6.560;2022-08-23T11:47:10;99872.00;;;32.90
20092;BMP180;10205;49.678;6.560;2022-08-23T11:50:05;99875.00;;;33.00
20092;BMP180;10205;49.678;6.560;2022-08-23T11:53:22;99877.00;;;33.10
20092;BMP180;10205;49.678;6.560;2022-08-23T11:56:26;99879.00;;;33.20
20092;BMP180;10205;49.678;6.560;2022-08-23T11:59:12;99875.00;;;33.30
20092;BMP180;10205;49.678;6.560;2022-08-23T12:01:44;99878.00;;;33.40
20092;BMP180;10205;49.678;6.560;2022-08-23T12:04:31;99889.00;;;33.50
20092;BMP180;10205;49.678;6.560;2022-08-23T12:06:59;99879.00;;;33.60
20092;BMP180;10205;49.678;6.560;2022-08-23T12:09:52;99879.00;;;33.60
20092;BMP180;10205;49.678;6.560;2022-08-23T12:12:33;99867.00;;;33.70
20092;BMP180;10205;49.678;6.560;2022-08-23T12:15:04;99877.00;;;33.80
20092;BMP180;10205;49.678;6.560;2022-08-23T12:18:12;99878.00;;;33.90
20092;BMP180;10205;49.678;6.560;2022-08-23T12:20:41;99878.00;;;34.00
20092;BMP180;10205;49.678;6.560;2022-08-23T12:23:19;99878.00;;;34.00
20092;BMP180;10205;49.678;6.560;2022-08-23T12:25:59;99879.00;;;34.10
20092;BMP180;10205;49.678;6.560;2022-08-23T12:28:50;99876.00;;;34.20
20092;BMP180;10205;49.678;6.560;2022-08-23T12:31:28;99872.00;;;34.30
20092;BMP180;10205;49.678;6.560;2022-08-23T12:34:20;99862.00;;;34.40
20092;BMP180;10205;49.678;6.560;2022-08-23T12:37:01;99865.00;;;34.50
20092;BMP180;10205;49.678;6.560;2022-08-23T12:39:37;99878.00;;;34.60
20092;BMP180;10205;49.678;6.560;2022-08-23T12:42:15;99864.00;;;34.70
20092;BMP180;10205;49.678;6.560;2022-08-23T12:45:00;99869.00;;;34.70
20092;BMP180;10205;49.678;6.560;2022-08-23T12:47:27;99873.00;;;34.80
20092;BMP180;10205;49.678;6.560;2022-08-23T12:49:58;99866.00;;;34.90
20092;BMP180;10205;49.678;6.560;2022-08-23T12:52:29;99865.00;;;35.00
20092;BMP180;10205;49.678;6.560;2022-08-23T12:55:00;99863.00;;;35.00
20092;BMP180;10205;49.678;6.560;2022-08-23T12:57:35;99868.00;;;35.00
20092;BMP180;10205;49.678;6.560;2022-08-23T13:00:17;99861.00;;;35.10
20092;BMP180;10205;49.678;6.560;2022-08-23T13:02:54;99865.00;;;35.10
20092;BMP180;10205;49.678;6.560;2022-08-23T13:05:36;99870.00;;;35.20
20092;BMP180;10205;49.678;6.560;2022-08-23T13:08:09;99870.00;;;35.30
20092;BMP180;10205;49.678;6.560;2022-08-23T13:10:40;99866.00;;;35.40
20092;BMP180;10205;49.678;6.560;2022-08-23T13:13:11;99863.00;;;35.40
20092;BMP180;10205;49.678;6.560;2022-08-23T13:15:48;99875.00;;;35.40
20092;BMP180;10205;49.678;6.560;2022-08-23T13:18:30;99857.00;;;35.40
20092;BMP180;10205;49.678;6.560;2022-08-23T13:21:29;99869.00;;;35.50
20092;BMP180;10205;49.678;6.560;2022-08-23T13:23:59;99860.00;;;35.50
20092;BMP180;10205;49.678;6.560;2022-08-23T13:26:36;99871.00;;;35.60
20092;BMP180;10205;49.678;6.560;2022-08-23T13:29:11;99882.00;;;35.60
20092;BMP180;10205;49.678;6.560;2022-08-23T13:32:01;99872.00;;;35.70
20092;BMP180;10205;49.678;6.560;2022-08-23T13:34:40;99871.00;;;35.70
20092;BMP180;10205;49.678;6.560;2022-08-23T13:37:19;99872.00;;;35.70
20092;BMP180;10205;49.678;6.560;2022-08-23T13:39:52;99882.00;;;35.80
20092;BMP180;10205;49.678;6.560;2022-08-23T13:42:34;99874.00;;;35.80
20092;BMP180;10205;49.678;6.560;2022-08-23T13:45:13;99867.00;;;35.90
20092;BMP180;10205;49.678;6.560;2022-08-23T13:47:49;99873.00;;;35.90
20092;BMP180;10205;49.678;6.560;2022-08-23T13:50:23;99864.00;;;35.90
20092;BMP180;10205;49.678;6.560;2022-08-23T13:52:51;99861.00;;;35.90
20092;BMP180;10205;49.678;6.560;2022-08-23T13:55:18;99862.00;;;35.90
20092;BMP180;10205;49.678;6.560;2022-08-23T13:57:45;99850.00;;;36.00
20092;BMP180;10205;49.678;6.560;2022-08-23T14:00:13;99851.00;;;36.00
20092;BMP180;10205;49.678;6.560;2022-08-23T14:02:41;99861.00;;;36.00
20092;BMP180;10205;49.678;6.560;2022-08-23T14:05:11;99856.00;;;36.00
20092;BMP180;10205;49.678;6.560;2022-08-23T14:07:38;99853.00;;;36.00
20092;BMP180;10205;49.678;6.560;2022-08-23T14:10:07;99852.00;;;36.00
20092;BMP180;10205;49.678;6.560;2022-08-23T14:12:35;99844.00;;;36.10
20092;BMP180;10205;49.678;6.560;2022-08-23T14:15:04;99839.00;;;36.10
20092;BMP180;10205;49.678;6.560;2022-08-23T14:17:39;99849.00;;;36.10
20092;BMP180;10205;49.678;6.560;2022-08-23T14:20:13;99843.00;;;36.10
20092;BMP180;10205;49.678;6.560;2022-08-23T14:22:40;99844.00;;;36.10
20092;BMP180;10205;49.678;6.560;2022-08-23T14:25:10;99850.00;;;36.10
20092;BMP180;10205;49.678;6.560;2022-08-23T14:27:38;99841.00;;;36.10
20092;BMP180;10205;49.678;6.560;2022-08-23T14:30:09;99839.00;;;36.20
20092;BMP180;10205;49.678;6.560;2022-08-23T14:32:37;99846.00;;;36.20
20092;BMP180;10205;49.678;6.560;2022-08-23T14:35:07;99835.00;;;36.20
20092;BMP180;10205;49.678;6.560;2022-08-23T14:37:36;99841.00;;;36.20
20092;BMP180;10205;49.678;6.560;2022-08-23T14:40:05;99839.00;;;36.20
20092;BMP180;10205;49.678;6.560;2022-08-23T14:42:34;99841.00;;;36.20
20092;BMP180;10205;49.678;6.560;2022-08-23T14:45:07;99847.00;;;36.20